sensor_id;sensor_type;location;lat;lon;timestamp;P1;durP1;ratioP1;P2;durP2;ratioP2
24443;SDS011;13346;50.984;5.822;2023-04-29T00:01:19;17.63;;;12.80;;
24443;SDS011;13346;50.984;5.822;2023-04-29T00:03:46;22.97;;;15.10;;
24443;SDS011;13346;50.984;5.822;2023-04-29T00:06:13;20.90;;;16.33;;
24443;SDS011;13346;50.984;5.822;2023-04-29T00:08:40;24.93;;;16.23;;
24443;SDS011;13346;50.984;5.822;2023-04-29T00:11:08;20.40;;;15.13;;
24443;SDS011;13346;50.984;5.822;2023-04-29T00:13:35;23.60;;;16.33;;
24443;SDS011;13346;50.984;5.822;2023-04-29T00:16:03;22.20;;;14.93;;
24443;SDS011;13346;50.984;5.822;2023-04-29T00:18:33;26.00;;;17.73;;
24443;SDS011;13346;50.984;5.822;2023-04-29T00:21:00;23.23;;;15.40;;
24443;SDS011;13346;50.984;5.822;2023-04-29T00:23:30;24.67;;;17.37;;
24443;SDS011;13346;50.984;5.822;2023-04-29T00:25:57;24.20;;;17.90;;
24443;SDS011;13346;50.984;5.822;2023-04-29T00:28:24;24.07;;;16.07;;
24443;SDS011;13346;50.984;5.822;2023-04-29T00:30:51;23.33;;;17.63;;
24443;SDS011;13346;50.984;5.822;2023-04-29T00:33:20;25.50;;;17.03;;
24443;SDS011;13346;50.984;5.822;2023-04-29T00:35:48;24.73;;;17.17;;
24443;SDS011;13346;50.984;5.822;2023-04-29T00:38:15;24.57;;;16.83;;
24443;SDS011;13346;50.984;5.822;2023-04-29T00:40:43;27.83;;;16.47;;
24443;SDS011;13346;50.984;5.822;2023-04-29T00:43:10;24.27;;;17.40;;
24443;SDS011;13346;50.984;5.822;2023-04-29T00:45:37;27.57;;;19.80;;
24443;SDS011;13346;50.984;5.822;2023-04-29T00:48:04;27.37;;;18.40;;
24443;SDS011;13346;50.984;5.822;2023-04-29T00:50:32;25.17;;;19.23;;
24443;SDS011;13346;50.984;5.822;2023-04-29T00:53:00;27.03;;;18.37;;
24443;SDS011;13346;50.984;5.822;2023-04-29T00:55:28;28.70;;;18.63;;
24443;SDS011;13346;50.984;5.822;2023-04-29T00:57:55;30.03;;;19.70;;
24443;SDS011;13346;50.984;5.822;2023-04-29T01:00:23;26.03;;;19.07;;
24443;SDS011;13346;50.984;5.822;2023-04-29T01:02:51;28.77;;;20.23;;
24443;SDS011;13346;50.984;5.822;2023-04-29T01:05:21;28.33;;;19.20;;
24443;SDS011;13346;50.984;5.822;2023-04-29T01:07:51;29.33;;;18.93;;
24443;SDS011;13346;50.984;5.822;2023-04-29T01:10:27;28.57;;;20.20;;
24443;SDS011;13346;50.984;5.822;2023-04-29T01:13:00;31.40;;;20.27;;
24443;SDS011;13346;50.984;5.822;2023-04-29T01:15:35;31.83;;;23.30;;
24443;SDS011;13346;50.984;5.822;2023-04-29T01:18:11;26.53;;;17.60;;
24443;SDS011;13346;50.984;5.822;2023-04-29T01:20:45;28.33;;;19.43;;
24443;SDS011;13346;50.984;5.822;2023-04-29T01:23:12;29.10;;;19.00;;
24443;SDS011;13346;50.984;5.822;2023-04-29T01:25:41;25.83;;;18.17;;
24443;SDS011;13346;50.984;5.822;2023-04-29T01:28:12;21.00;;;16.50;;
24443;SDS011;13346;50.984;5.822;2023-04-29T01:30:48;23.50;;;18.37;;
24443;SDS011;13346;50.984;5.822;2023-04-29T01:33:22;28.27;;;16.97;;
24443;SDS011;13346;50.984;5.822;2023-04-29T01:36:02;26.93;;;18.10;;
24443;SDS011;13346;50.984;5.822;2023-04-29T01:38:38;26.53;;;19.43;;
24443;SDS011;13346;50.984;5.822;2023-04-29T01:41:15;27.10;;;18.60;;
24443;SDS011;13346;50.984;5.822;2023-04-29T01:43:49;23.57;;;16.63;;
24443;SDS011;13346;50.984;5.822;2023-04-29T01:46:17;32.10;;;22.47;;
24443;SDS011;13346;50.984;5.822;2023-04-29T01:48:44;34.57;;;22.37;;
24443;SDS011;13346;50.984;5.822;2023-04-29T01:51:11;34.33;;;23.00;;
24443;SDS011;13346;50.984;5.822;2023-04-29T01:53:39;31.83;;;21.47;;
24443;SDS011;13346;50.984;5.822;2023-04-29T01:56:06;34.17;;;23.03;;
24443;SDS011;13346;50.984;5.822;2023-04-29T01:58:35;35.53;;;22.37;;
24443;SDS011;13346;50.984;5.822;2023-04-29T02:01:02;35.17;;;22.67;;
24443;SDS011;13346;50.984;5.822;2023-04-29T02:03:30;36.00;;;23.33;;
24443;SDS011;13346;50.984;5.822;2023-04-29T02:05:57;42.87;;;25.03;;
24443;SDS011;13346;50.984;5.822;2023-04-29T02:08:24;36.30;;;25.23;;
24443;SDS011;13346;50.984;5.822;2023-04-29T02:10:52;37.87;;;23.63;;
24443;SDS011;13346;50.984;5.822;2023-04-29T02:13:20;35.10;;;24.07;;
24443;SDS011;13346;50.984;5.822;2023-04-29T02:15:48;37.03;;;22.23;;
24443;SDS011;13346;50.984;5.822;2023-04-29T02:18:16;35.27;;;22.03;;
24443;SDS011;13346;50.984;5.822;2023-04-29T02:20:43;39.07;;;22.30;;
24443;SDS011;13346;50.984;5.822;2023-04-29T02:23:10;34.83;;;23.50;;
24443;SDS011;13346;50.984;5.822;2023-04-29T02:25:37;34.27;;;21.97;;
24443;SDS011;13346;50.984;5.822;2023-04-29T02:28:04;39.07;;;23.73;;
24443;SDS011;13346;50.984;5.822;2023-04-29T02:30:32;35.70;;;23.37;;
24443;SDS011;13346;50.984;5.822;2023-04-29T02:33:00;48.87;;;23.90;;
24443;SDS011;13346;50.984;5.822;2023-04-29T02:35:27;40.37;;;24.33;;
24443;SDS011;13346;50.984;5.822;2023-04-29T02:37:55;45.37;;;26.17;;
24443;SDS011;13346;50.984;5.822;2023-04-29T02:40:22;36.80;;;25.07;;
24443;SDS011;13346;50.984;5.822;2023-04-29T02:42:51;42.20;;;25.00;;
24443;SDS011;13346;50.984;5.822;2023-04-29T02:45:18;36.83;;;24.73;;
24443;SDS011;13346;50.984;5.822;2023-04-29T02:47:45;42.80;;;25.17;;
24443;SDS011;13346;50.984;5.822;2023-04-29T02:50:14;41.47;;;24.87;;
24443;SDS011;13346;50.984;5.822;2023-04-29T02:52:41;50.97;;;27.43;;
24443;SDS011;13346;50.984;5.822;2023-04-29T02:55:08;39.13;;;23.97;;
24443;SDS011;13346;50.984;5.822;2023-04-29T02:57:35;41.20;;;25.67;;
24443;SDS011;13346;50.984;5.822;2023-04-29T03:00:03;36.47;;;22.40;;
24443;SDS011;13346;50.984;5.822;2023-04-29T03:02:31;44.57;;;28.23;;
24443;SDS011;13346;50.984;5.822;2023-04-29T03:04:58;38.70;;;25.50;;
24443;SDS011;13346;50.984;5.822;2023-04-29T03:07:27;49.53;;;29.70;;
24443;SDS011;13346;50.984;5.822;2023-04-29T03:09:54;46.73;;;30.03;;
24443;SDS011;13346;50.984;5.822;2023-04-29T03:12:21;44.97;;;29.50;;
24443;SDS011;13346;50.984;5.822;2023-04-29T03:14:48;56.47;;;32.07;;
24443;SDS011;13346;50.984;5.822;2023-04-29T03:17:16;53.67;;;33.40;;
24443;SDS011;13346;50.984;5.822;2023-04-29T03:19:44;53.23;;;32.50;;
24443;SDS011;13346;50.984;5.822;2023-04-29T03:22:11;55.50;;;34.00;;
24443;SDS011;13346;50.984;5.822;2023-04-29T03:24:39;56.87;;;33.03;;
24443;SDS011;13346;50.984;5.822;2023-04-29T03:27:07;47.27;;;31.60;;
24443;SDS011;13346;50.984;5.822;2023-04-29T03:29:34;58.50;;;34.63;;
24443;SDS011;13346;50.984;5.822;2023-04-29T03:32:02;58.30;;;35.03;;
24443;SDS011;13346;50.984;5.822;2023-04-29T03:34:29;62.90;;;37.13;;
24443;SDS011;13346;50.984;5.822;2023-04-29T03:36:56;48.07;;;31.03;;
24443;SDS011;13346;50.984;5.822;2023-04-29T03:39:23;50.63;;;30.90;;
24443;SDS011;13346;50.984;5.822;2023-04-29T03:41:53;39.83;;;24.90;;
24443;SDS011;13346;50.984;5.822;2023-04-29T03:44:20;41.10;;;26.83;;
24443;SDS011;13346;50.984;5.822;2023-04-29T03:46:48;37.47;;;26.70;;
24443;SDS011;13346;50.984;5.822;2023-04-29T03:49:15;39.50;;;25.00;;
24443;SDS011;13346;50.984;5.822;2023-04-29T03:51:42;42.97;;;25.57;;
24443;SDS011;13346;50.984;5.822;2023-04-29T03:54:10;39.23;;;25.70;;
24443;SDS011;13346;50.984;5.822;2023-04-29T03:56:38;39.97;;;25.23;;
24443;SDS011;13346;50.984;5.822;2023-04-29T03:59:06;32.87;;;23.33;;
24443;SDS011;13346;50.984;5.822;2023-04-29T04:01:33;34.07;;;23.97;;
24443;SDS011;13346;50.984;5.822;2023-04-29T04:04:00;36.57;;;23.50;;
24443;SDS011;13346;50.984;5.822;2023-04-29T04:06:28;37.63;;;24.50;;
24443;SDS011;13346;50.984;5.822;2023-04-29T04:08:55;36.67;;;23.03;;
24443;SDS011;13346;50.984;5.822;2023-04-29T04:11:22;35.90;;;21.40;;
24443;SDS011;13346;50.984;5.822;2023-04-29T04:13:50;26.17;;;19.10;;
24443;SDS011;13346;50.984;5.822;2023-04-29T04:16:18;29.13;;;19.67;;
24443;SDS011;13346;50.984;5.822;2023-04-29T04:18:45;29.40;;;17.97;;
24443;SDS011;13346;50.984;5.822;2023-04-29T04:21:12;28.30;;;17.97;;
24443;SDS011;13346;50.984;5.822;2023-04-29T04:23:40;22.43;;;15.60;;
24443;SDS011;13346;50.984;5.822;2023-04-29T04:26:08;27.93;;;18.60;;
24443;SDS011;13346;50.984;5.822;2023-04-29T04:28:35;26.33;;;18.00;;
24443;SDS011;13346;50.984;5.822;2023-04-29T04:31:02;28.73;;;18.03;;
24443;SDS011;13346;50.984;5.822;2023-04-29T04:33:31;27.27;;;18.23;;
24443;SDS011;13346;50.984;5.822;2023-04-29T04:35:59;33.97;;;19.53;;
24443;SDS011;13346;50.984;5.822;2023-04-29T04:38:26;23.97;;;17.03;;
24443;SDS011;13346;50.984;5.822;2023-04-29T04:40:53;33.87;;;20.87;;
24443;SDS011;13346;50.984;5.822;2023-04-29T04:43:20;32.07;;;19.80;;
24443;SDS011;13346;50.984;5.822;2023-04-29T04:45:48;32.17;;;20.70;;
24443;SDS011;13346;50.984;5.822;2023-04-29T04:48:15;31.77;;;19.20;;
24443;SDS011;13346;50.984;5.822;2023-04-29T04:50:43;33.57;;;20.43;;
24443;SDS011;13346;50.984;5.822;2023-04-29T04:53:10;32.60;;;21.27;;
24443;SDS011;13346;50.984;5.822;2023-04-29T04:55:38;35.53;;;20.93;;
24443;SDS011;13346;50.984;5.822;2023-04-29T04:58:05;29.80;;;19.70;;
24443;SDS011;13346;50.984;5.822;2023-04-29T05:00:32;36.20;;;21.10;;
24443;SDS011;13346;50.984;5.822;2023-04-29T05:02:59;32.33;;;20.83;;
24443;SDS011;13346;50.984;5.822;2023-04-29T05:05:26;31.17;;;20.47;;
24443;SDS011;13346;50.984;5.822;2023-04-29T05:07:55;33.47;;;20.57;;
24443;SDS011;13346;50.984;5.822;2023-04-29T05:10:22;32.40;;;22.13;;
24443;SDS011;13346;50.984;5.822;2023-04-29T05:12:51;34.70;;;20.50;;
24443;SDS011;13346;50.984;5.822;2023-04-29T05:15:18;31.70;;;21.77;;
24443;SDS011;13346;50.984;5.822;2023-04-29T05:17:45;32.03;;;20.63;;
24443;SDS011;13346;50.984;5.822;2023-04-29T05:20:12;30.67;;;20.23;;
24443;SDS011;13346;50.984;5.822;2023-04-29T05:22:39;26.07;;;19.07;;
24443;SDS011;13346;50.984;5.822;2023-04-29T05:25:08;26.87;;;18.83;;
24443;SDS011;13346;50.984;5.822;2023-04-29T05:27:35;29.77;;;21.30;;
24443;SDS011;13346;50.984;5.822;2023-04-29T05:30:03;26.57;;;19.43;;
24443;SDS011;13346;50.984;5.822;2023-04-29T05:32:31;35.73;;;18.83;;
24443;SDS011;13346;50.984;5.822;2023-04-29T05:34:58;29.77;;;19.13;;
24443;SDS011;13346;50.984;5.822;2023-04-29T05:37:25;33.30;;;20.73;;
24443;SDS011;13346;50.984;5.822;2023-04-29T05:39:56;27.80;;;19.70;;
24443;SDS011;13346;50.984;5.822;2023-04-29T05:42:24;28.87;;;19.13;;
24443;SDS011;13346;50.984;5.822;2023-04-29T05:44:51;32.30;;;19.03;;
24443;SDS011;13346;50.984;5.822;2023-04-29T05:47:18;32.90;;;20.77;;
24443;SDS011;13346;50.984;5.822;2023-04-29T05:49:46;32.03;;;19.63;;
24443;SDS011;13346;50.984;5.822;2023-04-29T05:52:14;29.50;;;20.17;;
24443;SDS011;13346;50.984;5.822;2023-04-29T05:54:41;29.83;;;20.23;;
24443;SDS011;13346;50.984;5.822;2023-04-29T05:57:08;27.27;;;20.00;;
24443;SDS011;13346;50.984;5.822;2023-04-29T05:59:37;30.53;;;21.30;;
24443;SDS011;13346;50.984;5.822;2023-04-29T06:02:04;27.77;;;20.20;;
24443;SDS011;13346;50.984;5.822;2023-04-29T06:04:32;23.73;;;17.17;;
24443;SDS011;13346;50.984;5.822;2023-04-29T06:06:59;32.03;;;19.33;;
24443;SDS011;13346;50.984;5.822;2023-04-29T06:09:26;28.07;;;19.40;;
24443;SDS011;13346;50.984;5.822;2023-04-29T06:11:53;31.53;;;18.33;;
24443;SDS011;13346;50.984;5.822;2023-04-29T06:14:22;23.27;;;17.90;;
24443;SDS011;13346;50.984;5.822;2023-04-29T06:16:50;26.23;;;18.27;;
24443;SDS011;13346;50.984;5.822;2023-04-29T06:19:18;20.70;;;16.77;;
24443;SDS011;13346;50.984;5.822;2023-04-29T06:21:45;21.27;;;15.30;;
24443;SDS011;13346;50.984;5.822;2023-04-29T06:24:12;21.00;;;15.97;;
24443;SDS011;13346;50.984;5.822;2023-04-29T06:26:42;25.37;;;16.20;;
24443;SDS011;13346;50.984;5.822;2023-04-29T06:29:09;20.37;;;16.27;;
24443;SDS011;13346;50.984;5.822;2023-04-29T06:31:36;22.23;;;15.73;;
24443;SDS011;13346;50.984;5.822;2023-04-29T06:34:05;20.30;;;13.97;;
24443;SDS011;13346;50.984;5.822;2023-04-29T06:36:32;21.90;;;14.80;;
24443;SDS011;13346;50.984;5.822;2023-04-29T06:38:59;18.10;;;14.07;;
24443;SDS011;13346;50.984;5.822;2023-04-29T06:41:27;20.77;;;14.67;;
24443;SDS011;13346;50.984;5.822;2023-04-29T06:43:54;19.17;;;13.87;;
24443;SDS011;13346;50.984;5.822;2023-04-29T06:46:22;18.90;;;15.23;;
24443;SDS011;13346;50.984;5.822;2023-04-29T06:48:49;16.27;;;13.07;;
24443;SDS011;13346;50.984;5.822;2023-04-29T06:51:17;16.47;;;13.30;;
24443;SDS011;13346;50.984;5.822;2023-04-29T06:53:45;20.30;;;13.83;;
24443;SDS011;13346;50.984;5.822;2023-04-29T06:56:12;16.93;;;13.50;;
24443;SDS011;13346;50.984;5.822;2023-04-29T06:58:39;16.13;;;12.80;;
24443;SDS011;13346;50.984;5.822;2023-04-29T07:01:06;16.80;;;13.10;;
24443;SDS011;13346;50.984;5.822;2023-04-29T07:03:33;18.07;;;12.90;;
24443;SDS011;13346;50.984;5.822;2023-04-29T07:06:00;16.97;;;14.00;;
24443;SDS011;13346;50.984;5.822;2023-04-29T07:08:29;17.03;;;12.43;;
24443;SDS011;13346;50.984;5.822;2023-04-29T07:10:57;20.57;;;14.43;;
24443;SDS011;13346;50.984;5.822;2023-04-29T07:13:24;22.03;;;14.27;;
24443;SDS011;13346;50.984;5.822;2023-04-29T07:15:51;15.27;;;12.87;;
24443;SDS011;13346;50.984;5.822;2023-04-29T07:18:18;17.03;;;14.13;;
24443;SDS011;13346;50.984;5.822;2023-04-29T07:20:45;14.47;;;12.17;;
24443;SDS011;13346;50.984;5.822;2023-04-29T07:23:15;22.03;;;14.67;;
24443;SDS011;13346;50.984;5.822;2023-04-29T07:25:43;17.93;;;13.67;;
24443;SDS011;13346;50.984;5.822;2023-04-29T07:28:11;18.13;;;13.27;;
24443;SDS011;13346;50.984;5.822;2023-04-29T07:30:38;20.60;;;13.33;;
24443;SDS011;13346;50.984;5.822;2023-04-29T07:33:06;16.50;;;12.60;;
24443;SDS011;13346;50.984;5.822;2023-04-29T07:35:33;13.73;;;12.13;;
24443;SDS011;13346;50.984;5.822;2023-04-29T07:38:00;19.87;;;14.40;;
24443;SDS011;13346;50.984;5.822;2023-04-29T07:40:28;16.63;;;11.80;;
24443;SDS011;13346;50.984;5.822;2023-04-29T07:42:56;17.53;;;13.70;;
24443;SDS011;13346;50.984;5.822;2023-04-29T07:45:23;17.13;;;12.13;;
24443;SDS011;13346;50.984;5.822;2023-04-29T07:47:50;19.97;;;14.13;;
24443;SDS011;13346;50.984;5.822;2023-04-29T07:50:17;16.50;;;13.10;;
24443;SDS011;13346;50.984;5.822;2023-04-29T07:52:45;18.20;;;13.83;;
24443;SDS011;13346;50.984;5.822;2023-04-29T07:55:12;18.33;;;13.40;;
24443;SDS011;13346;50.984;5.822;2023-04-29T07:57:39;18.23;;;14.53;;
24443;SDS011;13346;50.984;5.822;2023-04-29T08:00:08;21.80;;;13.80;;
24443;SDS011;13346;50.984;5.822;2023-04-29T08:02:36;16.67;;;13.93;;
24443;SDS011;13346;50.984;5.822;2023-04-29T08:05:04;18.97;;;13.80;;
24443;SDS011;13346;50.984;5.822;2023-04-29T08:07:32;15.40;;;13.40;;
24443;SDS011;13346;50.984;5.822;2023-04-29T08:09:59;15.30;;;12.10;;
24443;SDS011;13346;50.984;5.822;2023-04-29T08:12:27;15.47;;;12.73;;
24443;SDS011;13346;50.984;5.822;2023-04-29T08:14:55;14.00;;;12.57;;
24443;SDS011;13346;50.984;5.822;2023-04-29T08:17:24;16.50;;;13.47;;
24443;SDS011;13346;50.984;5.822;2023-04-29T08:19:51;18.13;;;12.87;;
24443;SDS011;13346;50.984;5.822;2023-04-29T08:22:18;20.97;;;13.03;;
24443;SDS011;13346;50.984;5.822;2023-04-29T08:24:45;15.07;;;12.40;;
24443;SDS011;13346;50.984;5.822;2023-04-29T08:27:12;15.77;;;11.97;;
24443;SDS011;13346;50.984;5.822;2023-04-29T08:29:40;14.50;;;11.67;;
24443;SDS011;13346;50.984;5.822;2023-04-29T08:32:07;12.73;;;11.03;;
24443;SDS011;13346;50.984;5.822;2023-04-29T08:34:36;15.20;;;12.47;;
24443;SDS011;13346;50.984;5.822;2023-04-29T08:37:03;16.80;;;11.37;;
24443;SDS011;13346;50.984;5.822;2023-04-29T08:39:31;13.87;;;12.23;;
24443;SDS011;13346;50.984;5.822;2023-04-29T08:41:58;14.30;;;12.80;;
24443;SDS011;13346;50.984;5.822;2023-04-29T08:44:26;20.40;;;13.77;;
24443;SDS011;13346;50.984;5.822;2023-04-29T08:46:54;15.67;;;12.03;;
24443;SDS011;13346;50.984;5.822;2023-04-29T08:49:25;15.83;;;11.97;;
24443;SDS011;13346;50.984;5.822;2023-04-29T08:51:55;16.20;;;12.30;;
24443;SDS011;13346;50.984;5.822;2023-04-29T08:54:22;23.17;;;13.33;;
24443;SDS011;13346;50.984;5.822;2023-04-29T08:56:49;12.93;;;11.60;;
24443;SDS011;13346;50.984;5.822;2023-04-29T08:59:17;13.23;;;11.07;;
24443;SDS011;13346;50.984;5.822;2023-04-29T09:01:46;12.47;;;11.10;;
24443;SDS011;13346;50.984;5.822;2023-04-29T09:04:21;11.57;;;10.37;;
24443;SDS011;13346;50.984;5.822;2023-04-29T09:06:57;15.53;;;13.00;;
24443;SDS011;13346;50.984;5.822;2023-04-29T09:09:25;16.13;;;12.87;;
24443;SDS011;13346;50.984;5.822;2023-04-29T09:11:53;13.63;;;11.20;;
24443;SDS011;13346;50.984;5.822;2023-04-29T09:14:20;14.07;;;11.30;;
24443;SDS011;13346;50.984;5.822;2023-04-29T09:16:49;15.90;;;12.63;;
24443;SDS011;13346;50.984;5.822;2023-04-29T09:19:29;13.37;;;11.67;;
24443;SDS011;13346;50.984;5.822;2023-04-29T09:21:59;14.00;;;11.43;;
24443;SDS011;13346;50.984;5.822;2023-04-29T09:24:26;10.77;;;9.67;;
24443;SDS011;13346;50.984;5.822;2023-04-29T09:26:55;13.87;;;11.20;;
24443;SDS011;13346;50.984;5.822;2023-04-29T09:29:22;12.37;;;10.50;;
24443;SDS011;13346;50.984;5.822;2023-04-29T09:31:50;11.80;;;10.23;;
24443;SDS011;13346;50.984;5.822;2023-04-29T09:34:29;11.27;;;10.07;;
24443;SDS011;13346;50.984;5.822;2023-04-29T09:36:56;10.70;;;9.70;;
24443;SDS011;13346;50.984;5.822;2023-04-29T09:39:25;13.68;;;10.93;;
24443;SDS011;13346;50.984;5.822;2023-04-29T09:41:59;11.43;;;10.30;;
24443;SDS011;13346;50.984;5.822;2023-04-29T09:44:27;11.98;;;10.35;;
24443;SDS011;13346;50.984;5.822;2023-04-29T09:46:56;10.80;;;9.68;;
24443;SDS011;13346;50.984;5.822;2023-04-29T09:49:27;9.95;;;8.95;;
24443;SDS011;13346;50.984;5.822;2023-04-29T09:51:57;10.13;;;9.15;;
24443;SDS011;13346;50.984;5.822;2023-04-29T09:54:28;10.63;;;9.65;;
24443;SDS011;13346;50.984;5.822;2023-04-29T09:56:57;10.85;;;9.77;;
24443;SDS011;13346;50.984;5.822;2023-04-29T09:59:26;13.15;;;8.65;;
24443;SDS011;13346;50.984;5.822;2023-04-29T10:01:54;9.52;;;8.68;;
24443;SDS011;13346;50.984;5.822;2023-04-29T10:04:23;9.68;;;8.88;;
24443;SDS011;13346;50.984;5.822;2023-04-29T10:06:51;11.00;;;9.88;;
24443;SDS011;13346;50.984;5.822;2023-04-29T10:09:22;11.18;;;9.43;;
24443;SDS011;13346;50.984;5.822;2023-04-29T10:11:50;10.60;;;9.45;;
24443;SDS011;13346;50.984;5.822;2023-04-29T10:14:18;11.80;;;10.60;;
24443;SDS011;13346;50.984;5.822;2023-04-29T10:16:46;11.35;;;10.27;;
24443;SDS011;13346;50.984;5.822;2023-04-29T10:19:18;10.90;;;9.90;;
24443;SDS011;13346;50.984;5.822;2023-04-29T10:21:52;11.73;;;10.53;;
24443;SDS011;13346;50.984;5.822;2023-04-29T10:24:22;11.80;;;10.33;;
24443;SDS011;13346;50.984;5.822;2023-04-29T10:26:51;10.73;;;9.63;;
24443;SDS011;13346;50.984;5.822;2023-04-29T10:29:20;11.20;;;10.07;;
24443;SDS011;13346;50.984;5.822;2023-04-29T10:31:49;10.67;;;9.30;;
24443;SDS011;13346;50.984;5.822;2023-04-29T10:34:17;11.82;;;10.63;;
24443;SDS011;13346;50.984;5.822;2023-04-29T10:36:45;12.80;;;10.87;;
24443;SDS011;13346;50.984;5.822;2023-04-29T10:39:15;11.75;;;10.55;;
24443;SDS011;13346;50.984;5.822;2023-04-29T10:41:52;13.17;;;11.30;;
24443;SDS011;13346;50.984;5.822;2023-04-29T10:44:19;12.40;;;11.10;;
24443;SDS011;13346;50.984;5.822;2023-04-29T10:46:48;12.82;;;11.23;;
24443;SDS011;13346;50.984;5.822;2023-04-29T10:49:35;18.38;;;11.57;;
24443;SDS011;13346;50.984;5.822;2023-04-29T10:52:02;13.18;;;11.88;;
24443;SDS011;13346;50.984;5.822;2023-04-29T10:54:31;14.48;;;12.10;;
24443;SDS011;13346;50.984;5.822;2023-04-29T10:56:58;13.07;;;11.70;;
24443;SDS011;13346;50.984;5.822;2023-04-29T11:02:11;15.03;;;12.83;;
24443;SDS011;13346;50.984;5.822;2023-04-29T11:07:34;16.35;;;11.73;;
24443;SDS011;13346;50.984;5.822;2023-04-29T11:10:03;13.07;;;11.80;;
24443;SDS011;13346;50.984;5.822;2023-04-29T11:12:32;17.33;;;12.95;;
24443;SDS011;13346;50.984;5.822;2023-04-29T11:14:59;14.43;;;12.32;;
24443;SDS011;13346;50.984;5.822;2023-04-29T11:17:34;16.17;;;11.95;;
24443;SDS011;13346;50.984;5.822;2023-04-29T11:20:02;14.85;;;13.25;;
24443;SDS011;13346;50.984;5.822;2023-04-29T11:22:35;14.13;;;12.65;;
24443;SDS011;13346;50.984;5.822;2023-04-29T11:25:04;13.75;;;12.35;;
24443;SDS011;13346;50.984;5.822;2023-04-29T11:27:34;14.27;;;12.85;;
24443;SDS011;13346;50.984;5.822;2023-04-29T11:30:02;14.95;;;13.40;;
24443;SDS011;13346;50.984;5.822;2023-04-29T11:32:32;14.27;;;12.93;;
24443;SDS011;13346;50.984;5.822;2023-04-29T11:35:07;14.95;;;13.18;;
24443;SDS011;13346;50.984;5.822;2023-04-29T11:37:34;14.82;;;13.43;;
24443;SDS011;13346;50.984;5.822;2023-04-29T11:40:02;13.27;;;11.27;;
24443;SDS011;13346;50.984;5.822;2023-04-29T11:42:33;16.08;;;13.35;;
24443;SDS011;13346;50.984;5.822;2023-04-29T11:45:00;14.75;;;13.35;;
24443;SDS011;13346;50.984;5.822;2023-04-29T11:47:28;13.95;;;12.43;;
24443;SDS011;13346;50.984;5.822;2023-04-29T11:50:03;15.73;;;12.00;;
24443;SDS011;13346;50.984;5.822;2023-04-29T11:52:32;12.40;;;11.18;;
24443;SDS011;13346;50.984;5.822;2023-04-29T11:55:00;14.20;;;12.90;;
24443;SDS011;13346;50.984;5.822;2023-04-29T11:57:29;13.35;;;11.20;;
24443;SDS011;13346;50.984;5.822;2023-04-29T11:59:56;15.18;;;12.20;;
24443;SDS011;13346;50.984;5.822;2023-04-29T12:02:27;15.88;;;13.10;;
24443;SDS011;13346;50.984;5.822;2023-04-29T12:04:55;14.95;;;12.60;;
24443;SDS011;13346;50.984;5.822;2023-04-29T12:07:25;14.43;;;12.73;;
24443;SDS011;13346;50.984;5.822;2023-04-29T12:09:53;13.35;;;11.20;;
24443;SDS011;13346;50.984;5.822;2023-04-29T12:12:20;15.27;;;11.77;;
24443;SDS011;13346;50.984;5.822;2023-04-29T12:14:49;14.95;;;12.50;;
24443;SDS011;13346;50.984;5.822;2023-04-29T12:17:17;13.10;;;11.88;;
24443;SDS011;13346;50.984;5.822;2023-04-29T12:19:44;14.48;;;12.95;;
24443;SDS011;13346;50.984;5.822;2023-04-29T12:22:12;15.55;;;11.88;;
24443;SDS011;13346;50.984;5.822;2023-04-29T12:24:39;13.77;;;12.38;;
24443;SDS011;13346;50.984;5.822;2023-04-29T12:27:07;16.27;;;12.18;;
24443;SDS011;13346;50.984;5.822;2023-04-29T12:29:35;13.65;;;11.73;;
24443;SDS011;13346;50.984;5.822;2023-04-29T12:32:04;14.38;;;12.35;;
24443;SDS011;13346;50.984;5.822;2023-04-29T12:34:31;12.57;;;11.13;;
24443;SDS011;13346;50.984;5.822;2023-04-29T12:36:59;13.07;;;10.93;;
24443;SDS011;13346;50.984;5.822;2023-04-29T12:39:26;12.85;;;11.60;;
24443;SDS011;13346;50.984;5.822;2023-04-29T12:41:54;14.80;;;12.13;;
24443;SDS011;13346;50.984;5.822;2023-04-29T12:44:24;16.67;;;12.77;;
24443;SDS011;13346;50.984;5.822;2023-04-29T12:46:51;14.02;;;11.43;;
24443;SDS011;13346;50.984;5.822;2023-04-29T12:49:22;15.07;;;12.10;;
24443;SDS011;13346;50.984;5.822;2023-04-29T12:51:49;12.55;;;11.40;;
24443;SDS011;13346;50.984;5.822;2023-04-29T12:54:17;13.20;;;11.98;;
24443;SDS011;13346;50.984;5.822;2023-04-29T12:56:44;11.68;;;10.57;;
24443;SDS011;13346;50.984;5.822;2023-04-29T12:59:12;17.90;;;11.20;;
24443;SDS011;13346;50.984;5.822;2023-04-29T13:01:39;14.50;;;10.05;;
24443;SDS011;13346;50.984;5.822;2023-04-29T13:04:06;11.30;;;10.27;;
24443;SDS011;13346;50.984;5.822;2023-04-29T13:06:37;12.25;;;11.10;;
24443;SDS011;13346;50.984;5.822;2023-04-29T13:09:06;9.43;;;8.63;;
24443;SDS011;13346;50.984;5.822;2023-04-29T13:11:36;11.90;;;10.77;;
24443;SDS011;13346;50.984;5.822;2023-04-29T13:14:03;15.70;;;10.35;;
24443;SDS011;13346;50.984;5.822;2023-04-29T13:16:31;13.15;;;10.38;;
24443;SDS011;13346;50.984;5.822;2023-04-29T13:18:58;12.70;;;9.70;;
24443;SDS011;13346;50.984;5.822;2023-04-29T13:21:25;10.63;;;9.63;;
24443;SDS011;13346;50.984;5.822;2023-04-29T13:23:54;10.70;;;9.80;;
24443;SDS011;13346;50.984;5.822;2023-04-29T13:26:21;16.77;;;12.13;;
24443;SDS011;13346;50.984;5.822;2023-04-29T13:28:49;10.43;;;9.38;;
24443;SDS011;13346;50.984;5.822;2023-04-29T13:31:16;11.88;;;9.68;;
24443;SDS011;13346;50.984;5.822;2023-04-29T13:33:44;10.50;;;9.45;;
24443;SDS011;13346;50.984;5.822;2023-04-29T13:36:12;10.15;;;9.25;;
24443;SDS011;13346;50.984;5.822;2023-04-29T13:38:40;11.35;;;10.18;;
24443;SDS011;13346;50.984;5.822;2023-04-29T13:41:08;11.02;;;9.75;;
24443;SDS011;13346;50.984;5.822;2023-04-29T13:43:36;9.95;;;9.05;;
24443;SDS011;13346;50.984;5.822;2023-04-29T13:46:03;8.73;;;8.02;;
24443;SDS011;13346;50.984;5.822;2023-04-29T13:48:30;8.05;;;7.38;;
24443;SDS011;13346;50.984;5.822;2023-04-29T13:50:57;8.50;;;7.70;;
24443;SDS011;13346;50.984;5.822;2023-04-29T13:53:24;9.52;;;8.70;;
24443;SDS011;13346;50.984;5.822;2023-04-29T13:55:51;8.43;;;7.72;;
24443;SDS011;13346;50.984;5.822;2023-04-29T13:58:20;8.80;;;8.00;;
24443;SDS011;13346;50.984;5.822;2023-04-29T14:00:47;9.00;;;8.23;;
24443;SDS011;13346;50.984;5.822;2023-04-29T14:03:14;8.85;;;8.15;;
24443;SDS011;13346;50.984;5.822;2023-04-29T14:05:42;10.68;;;9.35;;
24443;SDS011;13346;50.984;5.822;2023-04-29T14:08:09;13.68;;;10.40;;
24443;SDS011;13346;50.984;5.822;2023-04-29T14:10:37;10.90;;;9.90;;
24443;SDS011;13346;50.984;5.822;2023-04-29T14:13:04;10.55;;;9.55;;
24443;SDS011;13346;50.984;5.822;2023-04-29T14:15:32;10.60;;;9.60;;
24443;SDS011;13346;50.984;5.822;2023-04-29T14:17:59;12.65;;;11.45;;
24443;SDS011;13346;50.984;5.822;2023-04-29T14:20:27;11.15;;;10.15;;
24443;SDS011;13346;50.984;5.822;2023-04-29T14:22:54;12.85;;;10.00;;
24443;SDS011;13346;50.984;5.822;2023-04-29T14:25:21;11.93;;;10.82;;
24443;SDS011;13346;50.984;5.822;2023-04-29T14:27:48;10.77;;;9.77;;
24443;SDS011;13346;50.984;5.822;2023-04-29T14:30:15;13.48;;;10.35;;
24443;SDS011;13346;50.984;5.822;2023-04-29T14:32:44;11.60;;;10.40;;
24443;SDS011;13346;50.984;5.822;2023-04-29T14:35:11;11.18;;;10.02;;